createdAt,value
2018-08-03T00:01:34.713Z,98823.03
2018-08-03T00:04:03.940Z,98827.09
2018-08-03T00:06:32.385Z,98822.41
2018-08-03T00:09:01.036Z,98820.77
2018-08-03T00:11:30.029Z,98817.95
2018-08-03T00:13:59.038Z,98819.11
2018-08-03T00:16:27.542Z,98815.02
2018-08-03T00:18:56.097Z,98819.34
2018-08-03T00:21:24.499Z,98813.53
2018-08-03T00:23:53.225Z,98816.91
2018-08-03T00:26:22.061Z,98808.92
2018-08-03T00:28:51.385Z,98811.06
2018-08-03T00:31:20.377Z,98810.00
2018-08-03T00:33:48.625Z,98805.84
2018-08-03T00:36:16.857Z,98810.78
2018-08-03T00:38:45.717Z,98808.39
2018-08-03T00:41:14.017Z,98812.55
2018-08-03T00:43:42.265Z,98805.92
2018-08-03T00:46:10.855Z,98809.42
2018-08-03T00:48:39.091Z,98798.81
2018-08-03T00:51:07.966Z,98798.94
2018-08-03T00:53:36.528Z,98798.94
2018-08-03T00:56:05.130Z,98795.36
2018-08-03T00:58:33.359Z,98803.98
2018-08-03T01:01:02.552Z,98807.27
2018-08-03T01:03:31.309Z,98808.78
2018-08-03T01:05:59.917Z,98806.23
2018-08-03T01:08:28.366Z,98808.34
2018-08-03T01:10:57.497Z,98809.53
2018-08-03T01:13:26.255Z,98810.91
2018-08-03T01:15:54.351Z,98813.17
2018-08-03T01:18:22.909Z,98811.14
2018-08-03T01:20:51.455Z,98818.70
2018-08-03T01:23:20.046Z,98816.09
2018-08-03T01:25:48.393Z,98817.41
2018-08-03T01:28:17.007Z,98809.86
2018-08-03T01:30:45.569Z,98814.32
2018-08-03T01:33:14.444Z,98814.28
2018-08-03T01:35:42.821Z,98812.19
2018-08-03T01:38:11.479Z,98815.96
2018-08-03T01:40:39.712Z,98807.03
2018-08-03T01:43:08.009Z,98807.98
2018-08-03T01:45:36.286Z,98804.08
2018-08-03T01:48:05.463Z,98805.13
2018-08-03T01:50:33.765Z,98798.06
2018-08-03T01:53:03.927Z,98792.96
2018-08-03T01:55:32.298Z,98797.59
2018-08-03T01:58:01.073Z,98799.48
2018-08-03T02:00:29.660Z,98797.96
2018-08-03T02:02:58.001Z,98792.77
2018-08-03T02:05:26.293Z,98796.95
2018-08-03T02:07:55.057Z,98800.46
2018-08-03T02:10:24.261Z,98797.17
2018-08-03T02:12:52.822Z,98798.33
2018-08-03T02:15:21.379Z,98791.69
2018-08-03T02:17:49.962Z,98795.03
2018-08-03T02:20:18.082Z,98800.05
2018-08-03T02:22:46.375Z,98796.13
2018-08-03T02:25:14.682Z,98789.13
2018-08-03T02:27:42.903Z,98794.91
2018-08-03T02:30:11.129Z,98793.25
2018-08-03T02:32:39.962Z,98789.83
2018-08-03T02:35:08.406Z,98792.45
2018-08-03T02:37:37.197Z,98794.23
2018-08-03T02:40:06.083Z,98796.70
2018-08-03T02:42:34.931Z,98796.86
2018-08-03T02:45:03.593Z,98795.44
2018-08-03T02:47:32.110Z,98793.49
2018-08-03T02:50:00.673Z,98789.83
2018-08-03T02:52:28.902Z,98791.14
2018-08-03T02:54:57.262Z,98793.49
2018-08-03T02:57:25.474Z,98790.88
2018-08-03T02:59:54.259Z,98790.07
2018-08-03T03:02:22.826Z,98790.41
2018-08-03T03:04:51.425Z,98791.97
2018-08-03T03:07:20.040Z,98791.29
2018-08-03T03:09:49.231Z,98797.20
2018-08-03T03:12:17.485Z,98799.84
2018-08-03T03:14:45.701Z,98805.42
2018-08-03T03:17:14.224Z,98799.92
2018-08-03T03:19:42.870Z,98797.69
2018-08-03T03:22:11.569Z,98797.10
2018-08-03T03:24:39.748Z,98792.53
2018-08-03T03:27:08.384Z,98795.66
2018-08-03T03:29:36.766Z,98790.05
2018-08-03T03:32:05.062Z,98795.44
2018-08-03T03:34:33.247Z,98794.97
2018-08-03T03:37:01.601Z,98798.41
2018-08-03T03:39:29.793Z,98793.19
2018-08-03T03:41:58.295Z,98793.86
2018-08-03T03:44:26.493Z,98794.38
2018-08-03T03:46:54.978Z,98792.43
2018-08-03T03:49:23.868Z,98802.59
2018-08-03T03:51:52.857Z,98799.13
2018-08-03T03:54:21.231Z,98807.83
2018-08-03T03:56:49.438Z,98803.40
2018-08-03T03:59:17.967Z,98800.77
2018-08-03T04:01:46.197Z,98800.65
2018-08-03T04:04:14.438Z,98803.45
2018-08-03T04:06:42.916Z,98809.09
2018-08-03T04:09:12.565Z,98806.78
2018-08-03T04:11:41.631Z,98814.64
2018-08-03T04:14:10.117Z,98808.91
2018-08-03T04:16:38.625Z,98809.72
2018-08-03T04:19:07.129Z,98819.05
2018-08-03T04:21:35.627Z,98816.77
2018-08-03T04:24:04.101Z,98806.42
2018-08-03T04:26:32.437Z,98812.94
2018-08-03T04:29:01.028Z,98813.90
2018-08-03T04:31:29.613Z,98814.24
2018-08-03T04:33:58.192Z,98818.67
2018-08-03T04:36:26.949Z,98823.23
2018-08-03T04:38:55.196Z,98818.95
2018-08-03T04:41:23.733Z,98812.20
2018-08-03T04:43:52.629Z,98817.71
2018-08-03T04:46:21.110Z,98814.05
2018-08-03T04:48:49.755Z,98824.53
2018-08-03T04:51:18.256Z,98819.84
2018-08-03T04:53:46.914Z,98825.72
2018-08-03T04:56:15.684Z,98819.37
2018-08-03T04:58:43.888Z,98828.38
2018-08-03T05:01:12.127Z,98834.90
2018-08-03T05:03:40.390Z,98830.94
2018-08-03T05:06:08.909Z,98832.66
2018-08-03T05:08:37.120Z,98834.70
2018-08-03T05:11:05.420Z,98837.25
2018-08-03T05:13:33.856Z,98837.48
2018-08-03T05:16:02.358Z,98834.95
2018-08-03T05:18:30.766Z,98837.59
2018-08-03T05:20:59.088Z,98838.70
2018-08-03T05:23:27.577Z,98840.38
2018-08-03T05:25:55.807Z,98840.47
2018-08-03T05:28:24.417Z,98843.06
2018-08-03T05:30:52.499Z,98848.87
2018-08-03T05:33:20.779Z,98846.12
2018-08-03T05:35:49.313Z,98845.14
2018-08-03T05:38:17.525Z,98839.88
2018-08-03T05:40:45.785Z,98842.55
2018-08-03T05:43:14.658Z,98843.63
2018-08-03T05:45:43.240Z,98846.75
2018-08-03T05:48:11.811Z,98844.34
2018-08-03T05:50:39.977Z,98842.32
2018-08-03T05:53:08.224Z,98840.40
2018-08-03T05:55:36.492Z,98848.17
2018-08-03T05:58:05.235Z,98842.14
2018-08-03T06:00:33.461Z,98849.11
2018-08-03T06:03:01.715Z,98844.05
2018-08-03T06:05:30.721Z,98859.61
2018-08-03T06:07:58.963Z,98859.05
2018-08-03T06:10:27.160Z,98859.00
2018-08-03T06:12:55.378Z,98854.66
2018-08-03T06:15:23.608Z,98856.53
2018-08-03T06:17:51.833Z,98853.13
2018-08-03T06:20:20.336Z,98851.86
2018-08-03T06:22:48.840Z,98849.56
2018-08-03T06:25:17.069Z,98850.09
2018-08-03T06:27:45.296Z,98845.09
2018-08-03T06:30:13.966Z,98858.88
2018-08-03T06:32:42.359Z,98856.52
2018-08-03T06:35:10.549Z,98856.68
2018-08-03T06:37:39.072Z,98853.27
2018-08-03T06:40:07.337Z,98853.47
2018-08-03T06:42:35.537Z,98856.16
2018-08-03T06:45:04.809Z,98850.55
2018-08-03T06:47:33.284Z,98848.76
2018-08-03T06:50:01.710Z,98851.30
2018-08-03T06:52:30.528Z,98844.28
2018-08-03T06:54:59.040Z,98845.17
2018-08-03T06:57:27.622Z,98843.59
2018-08-03T06:59:55.860Z,98847.39
2018-08-03T07:02:24.449Z,98851.02
2018-08-03T07:04:52.710Z,98847.38
2018-08-03T07:07:21.229Z,98848.83
2018-08-03T07:09:49.693Z,98846.08
2018-08-03T07:12:17.976Z,98840.81
2018-08-03T07:14:46.316Z,98845.09
2018-08-03T07:17:14.505Z,98839.81
2018-08-03T07:19:43.077Z,98836.66
2018-08-03T07:22:11.297Z,98828.76
2018-08-03T07:24:39.766Z,98832.42
2018-08-03T07:27:08.028Z,98834.41
2018-08-03T07:29:36.606Z,98837.26
2018-08-03T07:32:04.928Z,98836.80
2018-08-03T07:34:33.681Z,98836.27
2018-08-03T07:37:02.135Z,98843.34
2018-08-03T07:39:30.703Z,98845.34
2018-08-03T07:41:59.488Z,98847.97
2018-08-03T07:44:28.260Z,98850.47
2018-08-03T07:46:56.779Z,98844.10
2018-08-03T07:49:25.495Z,98848.85
2018-08-03T07:51:54.376Z,98847.82
2018-08-03T07:54:22.661Z,98845.40
2018-08-03T07:56:51.824Z,98841.87
2018-08-03T07:59:20.939Z,98849.34
2018-08-03T08:01:49.414Z,98845.39
2018-08-03T08:04:18.224Z,98844.81
2018-08-03T08:06:46.577Z,98841.81
2018-08-03T08:09:15.113Z,98840.09
2018-08-03T08:11:43.671Z,98835.22
2018-08-03T08:14:11.925Z,98833.55
2018-08-03T08:16:41.342Z,98836.66
2018-08-03T08:19:09.775Z,98841.45
2018-08-03T08:21:38.327Z,98829.25
2018-08-03T08:24:07.022Z,98830.96
2018-08-03T08:26:35.576Z,98832.24
2018-08-03T08:29:05.325Z,98825.84
2018-08-03T08:31:34.406Z,98833.30
2018-08-03T08:34:02.739Z,98823.86
2018-08-03T08:36:31.315Z,98820.53
2018-08-03T08:38:59.821Z,98825.80
2018-08-03T08:41:28.509Z,98819.17
2018-08-03T08:43:56.906Z,98821.45
2018-08-03T08:46:26.248Z,98818.11
2018-08-03T08:48:54.862Z,98814.72
2018-08-03T08:51:23.092Z,98812.05
2018-08-03T08:53:53.237Z,98822.06
2018-08-03T08:56:21.550Z,98820.75
2018-08-03T08:58:49.900Z,98817.58
2018-08-03T09:01:19.178Z,98818.56
2018-08-03T09:03:47.386Z,98812.23
2018-08-03T09:06:15.855Z,98804.23
2018-08-03T09:08:44.351Z,98810.23
2018-08-03T09:11:12.819Z,98810.70
2018-08-03T09:13:41.115Z,98816.30
2018-08-03T09:16:09.543Z,98819.94
2018-08-03T09:18:38.328Z,98813.02
2018-08-03T09:21:07.347Z,98808.81
2018-08-03T09:23:35.631Z,98803.67
2018-08-03T09:26:04.716Z,98806.64
2018-08-03T09:28:32.956Z,98804.91
2018-08-03T09:31:01.700Z,98803.50
2018-08-03T09:33:29.978Z,98799.94
2018-08-03T09:35:58.542Z,98795.08
2018-08-03T09:38:27.470Z,98798.99
2018-08-03T09:40:56.886Z,98790.05
2018-08-03T09:43:25.623Z,98794.56
2018-08-03T09:45:53.945Z,98793.01
2018-08-03T09:48:24.144Z,98786.69
2018-08-03T09:50:53.629Z,98791.21
2018-08-03T09:53:22.140Z,98780.05
2018-08-03T09:55:50.764Z,98785.77
2018-08-03T09:58:19.026Z,98779.06
2018-08-03T10:00:53.084Z,98781.80
2018-08-03T10:03:21.349Z,98781.89
2018-08-03T10:05:49.590Z,98767.00
2018-08-03T10:08:17.900Z,98768.26
2018-08-03T10:10:46.588Z,98768.59
2018-08-03T10:13:15.571Z,98762.94
2018-08-03T10:15:44.847Z,98763.22
2018-08-03T10:18:13.277Z,98763.05
2018-08-03T10:20:42.073Z,98759.52
2018-08-03T10:23:10.661Z,98757.79
2018-08-03T10:25:39.249Z,98755.38
2018-08-03T10:28:07.688Z,98749.08
2018-08-03T10:30:35.977Z,98742.73
2018-08-03T10:33:05.150Z,98752.42
2018-08-03T10:35:34.198Z,98745.22
2018-08-03T10:38:02.407Z,98746.64
2018-08-03T10:40:31.357Z,98747.28
2018-08-03T10:43:00.066Z,98740.05
2018-08-03T10:45:28.553Z,98742.76
2018-08-03T10:47:56.789Z,98740.71
2018-08-03T10:50:25.560Z,98732.70
2018-08-03T10:52:53.771Z,98735.52
2018-08-03T10:55:22.232Z,98735.27
2018-08-03T10:57:50.400Z,98729.61
2018-08-03T11:00:28.270Z,98727.13
2018-08-03T11:02:57.257Z,98721.55
2018-08-03T11:05:25.773Z,98714.41
2018-08-03T11:07:54.593Z,98718.25
2018-08-03T11:10:22.838Z,98713.42
2018-08-03T11:12:51.694Z,98705.67
2018-08-03T11:15:20.328Z,98702.81
2018-08-03T11:17:49.492Z,98705.04
2018-08-03T11:20:18.219Z,98705.69
2018-08-03T11:22:46.653Z,98706.05
2018-08-03T11:25:15.010Z,98704.86
2018-08-03T11:27:43.704Z,98696.30
2018-08-03T11:30:12.576Z,98688.05
2018-08-03T11:32:41.255Z,98692.59
2018-08-03T11:35:10.915Z,98689.38
2018-08-03T11:37:39.165Z,98679.09
2018-08-03T11:40:08.146Z,98671.44
2018-08-03T11:42:36.882Z,98674.73
2018-08-03T11:45:07.389Z,98673.76
2018-08-03T11:47:36.273Z,98670.67
2018-08-03T11:50:06.880Z,98672.73
2018-08-03T11:52:35.448Z,98666.78
2018-08-03T11:55:04.339Z,98665.81
2018-08-03T11:57:32.901Z,98662.52
2018-08-03T12:00:01.742Z,98664.38
2018-08-03T12:02:30.331Z,98655.49
2018-08-03T12:04:58.494Z,98660.14
2018-08-03T12:07:27.336Z,98652.67
2018-08-03T12:09:55.558Z,98651.27
2018-08-03T12:12:24.266Z,98653.19
2018-08-03T12:14:52.477Z,98644.83
2018-08-03T12:17:21.697Z,98642.42
2018-08-03T12:19:50.666Z,98642.14
2018-08-03T12:22:19.348Z,98633.73
2018-08-03T12:24:47.629Z,98632.20
2018-08-03T12:27:15.853Z,98633.87
2018-08-03T12:29:44.679Z,98636.14
2018-08-03T12:32:13.246Z,98633.97
2018-08-03T12:34:48.143Z,98626.80
2018-08-03T12:37:16.742Z,98630.79
2018-08-03T12:39:45.029Z,98625.98
2018-08-03T12:42:13.246Z,98619.38
2018-08-03T12:44:41.822Z,98619.41
2018-08-03T12:47:10.026Z,98613.52
2018-08-03T12:49:38.621Z,98607.91
2018-08-03T12:52:07.218Z,98615.20
2018-08-03T12:54:35.500Z,98621.03
2018-08-03T12:57:03.856Z,98615.08
2018-08-03T12:59:32.157Z,98613.75
2018-08-03T13:02:00.638Z,98610.20
2018-08-03T13:04:28.910Z,98615.17
2018-08-03T13:06:57.466Z,98604.64
2018-08-03T13:09:25.702Z,98600.63
2018-08-03T13:11:53.890Z,98599.14
2018-08-03T13:14:22.336Z,98603.79
2018-08-03T13:16:50.838Z,98600.41
2018-08-03T13:19:19.037Z,98600.59
2018-08-03T13:21:47.578Z,98597.89
2018-08-03T13:24:16.120Z,98591.25
2018-08-03T13:26:44.386Z,98588.72
2018-08-03T13:29:13.511Z,98590.89
2018-08-03T13:31:42.212Z,98589.36
2018-08-03T13:34:10.440Z,98583.27
2018-08-03T13:36:38.925Z,98585.48
2018-08-03T13:39:08.547Z,98576.59
2018-08-03T13:41:37.386Z,98579.42
2018-08-03T13:44:05.625Z,98570.98
2018-08-03T13:46:34.677Z,98571.31
2018-08-03T13:49:03.171Z,98577.85
2018-08-03T13:51:31.413Z,98572.52
2018-08-03T13:53:59.757Z,98570.23
2018-08-03T13:56:28.277Z,98563.98
2018-08-03T13:58:56.509Z,98563.64
2018-08-03T14:02:42.141Z,98566.70
2018-08-03T14:05:11.222Z,98558.95
2018-08-03T14:07:39.518Z,98559.70
2018-08-03T14:10:09.290Z,98552.59
2018-08-03T14:12:38.039Z,98551.95
2018-08-03T14:15:07.216Z,98549.02
2018-08-03T14:17:36.156Z,98544.83
2018-08-03T14:20:06.017Z,98545.87
2018-08-03T14:22:34.858Z,98537.72
2018-08-03T14:25:03.381Z,98545.59
2018-08-03T14:27:31.628Z,98545.95
2018-08-03T14:30:00.012Z,98536.50
2018-08-03T14:32:28.316Z,98534.03
2018-08-03T14:34:56.500Z,98540.17
2018-08-03T14:37:24.711Z,98536.92
2018-08-03T14:39:53.166Z,98541.36
2018-08-03T14:42:21.761Z,98538.16
2018-08-03T14:44:50.002Z,98541.14
2018-08-03T14:47:18.616Z,98526.86
2018-08-03T14:49:47.829Z,98526.20
2018-08-03T14:52:16.006Z,98522.95
2018-08-03T14:54:44.276Z,98523.63
2018-08-03T14:57:12.583Z,98520.91
2018-08-03T14:59:41.168Z,98520.52
2018-08-03T15:02:09.784Z,98518.36
2018-08-03T15:04:38.264Z,98512.70
2018-08-03T15:07:06.732Z,98508.22
2018-08-03T15:09:35.257Z,98506.25
2018-08-03T15:12:03.826Z,98509.70
2018-08-03T15:14:32.055Z,98506.42
2018-08-03T15:17:00.560Z,98507.39
2018-08-03T15:19:29.082Z,98506.14
2018-08-03T15:21:57.569Z,98499.59
2018-08-03T15:24:25.854Z,98502.06
2018-08-03T15:26:54.078Z,98499.09
2018-08-03T15:29:23.175Z,98489.76
2018-08-03T15:31:51.425Z,98487.41
2018-08-03T15:34:19.754Z,98490.97
2018-08-03T15:36:48.029Z,98488.92
2018-08-03T15:39:16.296Z,98489.16
2018-08-03T15:41:45.058Z,98489.91
2018-08-03T15:44:13.338Z,98483.69
2018-08-03T15:46:41.597Z,98482.44
2018-08-03T15:49:09.873Z,98482.23
2018-08-03T15:51:38.129Z,98482.95
2018-08-03T15:54:06.330Z,98468.36
2018-08-03T15:56:34.578Z,98472.06
2018-08-03T15:59:02.763Z,98470.02
2018-08-03T16:01:31.104Z,98470.55
2018-08-03T16:04:00.180Z,98463.91
2018-08-03T16:06:28.641Z,98463.28
2018-08-03T16:08:57.121Z,98459.88
2018-08-03T16:11:25.340Z,98461.27
2018-08-03T16:13:53.642Z,98464.71
2018-08-03T16:16:22.462Z,98461.48
2018-08-03T16:18:51.028Z,98445.48
2018-08-03T16:21:19.563Z,98449.91
2018-08-03T16:23:48.454Z,98449.35
2018-08-03T16:26:17.031Z,98449.81
2018-08-03T16:28:46.197Z,98447.21
2018-08-03T16:31:15.291Z,98445.69
2018-08-03T16:33:43.500Z,98445.13
2018-08-03T16:36:12.283Z,98437.45
2018-08-03T16:38:41.028Z,98436.67
2018-08-03T16:41:09.274Z,98440.63
2018-08-03T16:43:37.733Z,98439.73
2018-08-03T16:46:06.636Z,98445.53
2018-08-03T16:48:35.312Z,98441.78
2018-08-03T16:51:03.685Z,98434.33
2018-08-03T16:53:31.898Z,98439.23
2018-08-03T16:56:00.513Z,98441.81
2018-08-03T16:58:29.003Z,98437.17
2018-08-03T17:00:57.460Z,98433.47
2018-08-03T17:03:26.013Z,98429.44
2018-08-03T17:05:54.861Z,98426.23
2018-08-03T17:08:23.037Z,98424.17
2018-08-03T17:10:51.534Z,98422.70
2018-08-03T17:13:20.440Z,98427.38
2018-08-03T17:15:48.974Z,98418.34
2018-08-03T17:18:17.216Z,98415.16
2018-08-03T17:20:45.786Z,98416.10
2018-08-03T17:23:15.003Z,98415.53
2018-08-03T17:25:43.583Z,98421.66
2018-08-03T17:28:12.207Z,98409.66
2018-08-03T17:30:40.522Z,98410.78
2018-08-03T17:33:08.885Z,98417.72
2018-08-03T17:35:37.760Z,98416.46
2018-08-03T17:38:06.380Z,98414.73
2018-08-03T17:40:35.763Z,98415.73
2018-08-03T17:43:04.091Z,98410.55
2018-08-03T17:45:33.008Z,98411.42
2018-08-03T17:48:01.330Z,98409.14
2018-08-03T17:50:30.887Z,98415.84
2018-08-03T17:52:59.094Z,98410.14
2018-08-03T17:55:27.346Z,98412.39
2018-08-03T17:57:55.641Z,98409.52
2018-08-03T18:00:24.257Z,98399.84
2018-08-03T18:02:52.571Z,98399.52
2018-08-03T18:05:23.281Z,98405.05
2018-08-03T18:07:52.005Z,98400.89
2018-08-03T18:10:20.437Z,98407.88
2018-08-03T18:12:49.167Z,98413.02
2018-08-03T18:15:17.704Z,98420.48
2018-08-03T18:17:46.308Z,98422.64
2018-08-03T18:20:14.827Z,98425.34
2018-08-03T18:22:43.509Z,98425.05
2018-08-03T18:25:12.971Z,98425.25
2018-08-03T18:27:41.462Z,98428.94
2018-08-03T18:30:09.775Z,98427.18
2018-08-03T18:32:39.081Z,98425.03
2018-08-03T18:35:07.894Z,98431.42
2018-08-03T18:37:36.708Z,98428.27
2018-08-03T18:40:08.223Z,98428.35
2018-08-03T18:42:36.653Z,98430.89
2018-08-03T18:45:06.724Z,98429.81
2018-08-03T18:47:36.003Z,98430.94
2018-08-03T18:50:04.814Z,98433.14
2018-08-03T18:52:33.070Z,98429.04
2018-08-03T18:55:02.171Z,98434.91
2018-08-03T18:57:30.774Z,98440.67
2018-08-03T18:59:59.584Z,98442.39
2018-08-03T19:02:28.119Z,98443.55
2018-08-03T19:04:56.729Z,98444.54
2018-08-03T19:07:25.288Z,98447.34
2018-08-03T19:09:54.094Z,98449.80
2018-08-03T19:12:23.399Z,98449.59
2018-08-03T19:14:51.862Z,98453.52
2018-08-03T19:17:20.747Z,98459.78
2018-08-03T19:19:49.216Z,98454.81
2018-08-03T19:22:18.159Z,98467.53
2018-08-03T19:24:47.922Z,98465.28
2018-08-03T19:27:16.734Z,98467.46
2018-08-03T19:29:45.551Z,98467.34
2018-08-03T19:32:14.556Z,98471.67
2018-08-03T19:34:42.963Z,98470.82
2018-08-03T19:37:11.376Z,98471.88
2018-08-03T19:39:40.209Z,98480.49
2018-08-03T19:42:08.695Z,98477.23
2018-08-03T19:44:37.838Z,98488.64
2018-08-03T19:47:07.813Z,98482.67
2018-08-03T19:49:36.322Z,98484.91
2018-08-03T19:52:05.107Z,98483.07
2018-08-03T19:54:33.602Z,98487.45
2018-08-03T19:57:01.935Z,98484.23
2018-08-03T19:59:30.644Z,98485.28
2018-08-03T20:01:59.623Z,98486.08
2018-08-03T20:04:27.969Z,98484.66
2018-08-03T20:06:56.572Z,98494.84
2018-08-03T20:09:24.998Z,98497.85
2018-08-03T20:11:55.080Z,98494.54
2018-08-03T20:14:24.031Z,98490.09
2018-08-03T20:16:52.456Z,98495.87
2018-08-03T20:19:20.750Z,98493.09
2018-08-03T20:21:49.253Z,98492.98
2018-08-03T20:24:17.956Z,98490.09
2018-08-03T20:26:46.257Z,98483.19
2018-08-03T20:29:15.147Z,98488.49
2018-08-03T20:31:43.626Z,98485.48
2018-08-03T20:34:12.345Z,98493.98
2018-08-03T20:36:40.676Z,98490.55
2018-08-03T20:39:09.870Z,98485.57
2018-08-03T20:41:38.273Z,98486.58
2018-08-03T20:44:08.153Z,98493.40
2018-08-03T20:46:36.995Z,98491.56
2018-08-03T20:49:05.768Z,98493.19
2018-08-03T20:51:34.647Z,98493.48
2018-08-03T20:54:02.910Z,98493.13
2018-08-03T20:56:31.686Z,98498.63
2018-08-03T20:59:00.219Z,98497.22
2018-08-03T21:01:29.079Z,98487.81
2018-08-03T21:03:57.543Z,98494.48
2018-08-03T21:06:26.279Z,98490.45
2018-08-03T21:08:54.701Z,98497.27
2018-08-03T21:11:23.667Z,98500.29
2018-08-03T21:13:51.893Z,98489.45
2018-08-03T21:16:20.788Z,98488.95
2018-08-03T21:18:49.727Z,98489.83
2018-08-03T21:21:19.024Z,98490.67
2018-08-03T21:23:47.720Z,98491.94
2018-08-03T21:26:15.934Z,98490.22
2018-08-03T21:28:45.756Z,98493.44
2018-08-03T21:31:14.565Z,98494.00
2018-08-03T21:33:43.463Z,98489.71
2018-08-03T21:36:12.411Z,98493.50
2018-08-03T21:38:40.707Z,98492.80
2018-08-03T21:41:09.256Z,98490.47
2018-08-03T21:43:38.016Z,98487.70
2018-08-03T21:46:07.432Z,98492.37
2018-08-03T21:48:35.971Z,98490.02
2018-08-03T21:51:04.227Z,98490.95
2018-08-03T21:53:33.014Z,98489.63
2018-08-03T21:56:01.118Z,98495.19
2018-08-03T21:58:29.355Z,98491.19
2018-08-03T22:00:57.731Z,98486.41
2018-08-03T22:03:25.917Z,98487.72
2018-08-03T22:05:54.449Z,98487.02
2018-08-03T22:08:22.770Z,98491.30
2018-08-03T22:10:51.100Z,98484.95
2018-08-03T22:13:19.476Z,98484.77
2018-08-03T22:15:47.934Z,98483.33
2018-08-03T22:18:16.100Z,98487.72
2018-08-03T22:20:44.303Z,98490.48
2018-08-03T22:23:12.848Z,98497.44
2018-08-03T22:25:41.114Z,98499.75
2018-08-03T22:28:09.425Z,98485.16
2018-08-03T22:30:37.874Z,98488.84
2018-08-03T22:33:06.561Z,98488.12
2018-08-03T22:35:35.407Z,98492.89
2018-08-03T22:38:03.587Z,98495.53
2018-08-03T22:40:32.231Z,98496.12
2018-08-03T22:43:00.453Z,98491.17
2018-08-03T22:45:29.119Z,98494.98
2018-08-03T22:47:57.877Z,98492.28
2018-08-03T22:50:26.360Z,98496.45
2018-08-03T22:52:54.804Z,98497.38
2018-08-03T22:55:23.008Z,98496.17
2018-08-03T22:57:51.264Z,98498.19
2018-08-03T23:00:19.746Z,98495.88
2018-08-03T23:02:48.630Z,98490.28
2018-08-03T23:05:17.140Z,98493.06
2018-08-03T23:07:45.654Z,98496.55
2018-08-03T23:10:13.914Z,98497.38
2018-08-03T23:12:42.120Z,98492.09
2018-08-03T23:15:10.329Z,98489.47
2018-08-03T23:17:38.561Z,98490.70
2018-08-03T23:20:07.549Z,98488.65
2018-08-03T23:22:36.401Z,98487.43
2018-08-03T23:25:04.748Z,98490.20
2018-08-03T23:27:33.243Z,98495.17
2018-08-03T23:30:01.631Z,98488.98
2018-08-03T23:32:30.022Z,98492.44
2018-08-03T23:34:58.495Z,98493.13
2018-08-03T23:37:26.977Z,98486.53
2018-08-03T23:39:55.202Z,98489.17
2018-08-03T23:42:23.717Z,98487.95
2018-08-03T23:44:53.266Z,98484.80
2018-08-03T23:47:21.783Z,98486.84
2018-08-03T23:49:50.265Z,98492.22
2018-08-03T23:52:18.472Z,98480.56
2018-08-03T23:54:46.713Z,98471.11
2018-08-03T23:57:14.940Z,98465.75
2018-08-03T23:59:43.169Z,98473.25
